.
WxDataArchive / Data Records for 2009-01-06
2009-01-05 January 2009 2009-01-07

Data Records for Tuesday, 06 January 2009

Time	Temp	Chill	HIndex	Humid	Dewpt	 Wind 	HiWind	WindDir	Rain 	Barom 
-----	----	-----	------	-----	-----	------	------	-------	-----	----- 
00:00	13.6	13.6	13.6	87	10.5	0	0	---	0.00	30.050 
00:05	13.6	13.6	13.6	87	10.5	0	0	---	0.00	30.047 
00:10	13.6	13.6	13.6	87	10.5	0	0	---	0.00	30.045 
00:15	13.6	13.6	13.6	87	10.5	0	0	---	0.00	30.045 
00:20	13.6	13.6	13.6	87	10.5	0	0	---	0.00	30.044 
00:25	13.5	13.5	13.5	87	10.4	0	0	---	0.00	30.044 
00:30	13.5	13.5	13.5	87	10.4	0	0	---	0.00	30.042 
00:35	13.3	13.3	13.3	87	10.2	0	0	---	0.00	30.033 
00:40	13.3	13.3	13.3	87	10.2	0	0	---	0.00	30.031 
00:45	13.1	13.1	13.1	87	10.0	0	0	---	0.00	30.028 
00:50	13.1	13.1	13.1	87	10.0	0	0	---	0.00	30.027 
00:55	13.1	13.1	13.1	87	10.0	0	0	---	0.00	30.018 
01:00	13.1	13.1	13.1	87	10.0	0	0	---	0.00	30.012 
01:05	13.1	13.1	13.1	87	10.0	0	0	---	0.00	30.012 
01:10	13.1	13.1	13.1	87	10.0	0	0	---	0.00	30.010 
01:15	13.3	13.3	13.3	88	10.4	0	0	---	0.00	30.008 
01:20	13.3	13.3	13.3	88	10.4	0	0	---	0.00	30.006 
01:25	13.5	13.5	13.5	88	10.6	0	0	---	0.00	30.008 
01:30	13.6	13.6	13.6	88	10.7	0	0	---	0.00	29.999 
01:35	13.8	13.8	13.8	88	10.9	0	0	---	0.00	29.996 
01:40	14.0	14.0	14.0	88	11.1	0	0	---	0.00	29.996 
01:45	14.0	14.0	14.0	88	11.1	0	0	---	0.00	29.993 
01:50	14.0	14.0	14.0	88	11.1	0	0	---	0.00	29.987 
01:55	14.0	14.0	14.0	88	11.1	0	0	---	0.00	29.987 
02:00	14.0	14.0	14.0	88	11.1	0	0	---	0.00	29.985 
02:05	14.1	14.1	14.1	88	11.2	0	0	---	0.00	29.980 
02:10	14.1	14.1	14.1	88	11.2	0	0	---	0.00	29.979 
02:15	14.3	14.3	14.3	88	11.4	0	0	---	0.00	29.979 
02:20	14.3	14.3	14.3	88	11.4	0	0	---	0.00	29.980 
02:25	14.3	14.3	14.3	88	11.4	0	0	---	0.00	29.980 
02:30	14.3	14.3	14.3	88	11.4	0	0	---	0.00	29.981 
02:35	14.3	14.3	14.3	88	11.4	0	0	---	0.00	29.983 
02:40	14.4	14.4	14.4	88	11.5	0	0	---	0.00	29.982 
02:45	14.4	14.4	14.4	88	11.5	0	0	---	0.00	29.981 
02:50	14.4	14.4	14.4	88	11.5	0	0	---	0.00	29.982 
02:55	14.6	14.6	14.6	88	11.7	0	0	---	0.00	29.981 
03:00	14.6	14.6	14.6	89	12.0	0	0	---	0.00	29.979 
03:05	14.8	14.8	14.8	89	12.2	0	0	---	0.00	29.980 
03:10	14.9	14.9	14.9	89	12.3	0	0	---	0.00	29.981 
03:15	14.9	14.9	14.9	89	12.3	0	0	---	0.00	29.981 
03:20	15.1	15.1	15.1	89	12.5	0	0	---	0.00	29.980 
03:25	15.2	15.2	15.2	89	12.6	0	0	---	0.00	29.979 
03:30	15.4	15.4	15.4	89	12.8	0	0	---	0.00	29.971 
03:35	15.6	15.6	15.6	89	12.9	0	0	---	0.00	29.965 
03:40	15.9	15.9	15.9	90	13.5	0	0	---	0.00	29.955 
03:45	16.5	16.5	16.5	90	14.1	0	2	158	0.00	29.952 
03:50	17.2	17.2	17.2	90	14.8	0	1	158	0.00	29.947 
03:55	17.7	17.7	17.7	89	15.0	0	2	158	0.00	29.944 
04:00	18.0	18.0	18.0	88	15.1	0	3	90	0.00	29.944 
04:05	18.1	18.1	18.1	88	15.2	0	2	90	0.00	29.946 
04:10	18.3	18.3	18.3	87	15.1	0	2	90	0.00	29.939 
04:15	18.4	18.4	18.4	87	15.2	1	3	112	0.00	29.934 
04:20	18.4	18.4	18.4	86	14.9	1	2	112	0.00	29.933 
04:25	18.6	18.6	18.6	86	15.1	0	3	112	0.00	29.930 
04:30	18.8	18.8	18.8	86	15.3	1	3	112	0.00	29.930 
04:35	18.8	18.8	18.8	85	15.1	1	3	90	0.00	29.931 
04:40	18.9	18.9	18.9	85	15.2	0	2	90	0.00	29.930 
04:45	18.9	18.9	18.9	85	15.2	1	3	90	0.00	29.930 
04:50	18.9	18.9	18.9	84	14.9	1	2	90	0.00	29.928 
04:55	19.1	19.1	19.1	84	15.1	0	2	90	0.00	29.924 
05:00	19.1	19.1	19.1	84	15.1	0	3	90	0.00	29.918 
05:05	19.2	19.2	19.2	84	15.2	0	2	90	0.00	29.921 
05:10	19.2	19.2	19.2	84	15.2	0	2	90	0.00	29.921 
05:15	19.4	19.4	19.4	84	15.4	0	2	90	0.00	29.918 
05:20	19.5	19.5	19.5	83	15.2	1	3	90	0.00	29.913 
05:25	19.7	19.7	19.7	83	15.4	0	2	90	0.00	29.915 
05:30	19.7	19.7	19.7	83	15.4	1	4	90	0.00	29.914 
05:35	19.9	19.9	19.9	83	15.6	0	3	90	0.00	29.912 
05:40	19.9	19.9	19.9	82	15.3	1	3	90	0.00	29.914 
05:45	20.0	20.0	20.0	82	15.4	1	3	90	0.00	29.909 
05:50	20.2	20.2	20.2	81	15.3	1	3	90	0.00	29.911 
05:55	20.2	20.2	20.2	81	15.3	1	3	90	0.00	29.915 
06:00	20.3	20.3	20.3	81	15.4	2	3	90	0.00	29.905 
06:05	20.5	20.5	20.5	81	15.6	2	4	90	0.00	29.904 
06:10	20.5	20.5	20.5	81	15.6	1	3	135	0.00	29.910 
06:15	20.6	20.6	20.6	81	15.7	1	4	112	0.00	29.907 
06:20	20.6	20.6	20.6	81	15.7	1	4	112	0.00	29.909 
06:25	20.8	20.8	20.8	81	15.9	2	7	112	0.00	29.903 
06:30	21.0	21.0	21.0	81	16.1	2	6	90	0.00	29.898 
06:35	21.0	21.0	21.0	80	15.8	3	6	90	0.00	29.891 
06:40	21.1	21.1	21.1	80	15.9	2	6	112	0.00	29.886 
06:45	21.1	21.1	21.1	80	15.9	3	9	90	0.00	29.885 
06:50	21.3	21.3	21.3	80	16.1	2	5	112	0.00	29.882 
06:55	21.4	21.4	21.4	80	16.2	2	4	90	0.00	29.887 
07:00	21.6	21.6	21.6	79	16.1	3	7	90	0.00	29.886 
07:05	21.8	21.8	21.8	79	16.3	2	6	90	0.00	29.888 
07:10	21.9	21.9	21.9	79	16.4	2	5	112	0.00	29.888 
07:15	22.1	22.1	22.1	79	16.6	2	6	112	0.00	29.886 
07:20	22.2	22.2	22.2	79	16.7	1	6	112	0.00	29.882 
07:25	22.5	22.5	22.5	78	16.7	2	5	90	0.00	29.881 
07:30	22.7	22.7	22.7	77	16.6	2	5	90	0.00	29.879 
07:35	23.0	23.0	23.0	77	16.9	1	4	112	0.00	29.886 
07:40	23.2	23.2	23.2	76	16.8	1	3	112	0.00	29.894 
07:45	23.3	23.3	23.3	75	16.6	1	3	112	0.00	29.904 
07:50	23.5	23.5	23.5	75	16.8	1	3	112	0.00	29.907 
07:55	23.6	23.6	23.6	74	16.6	0	2	112	0.00	29.907 
08:00	23.8	23.8	23.8	74	16.7	0	2	112	0.00	29.918 
08:05	23.8	23.8	23.8	74	16.7	1	3	112	0.00	29.919 
08:10	23.9	23.9	23.9	74	16.8	1	2	90	0.00	29.920 
08:15	23.9	23.9	23.9	74	16.8	1	3	90	0.00	29.919 
08:20	24.1	24.1	24.1	75	17.3	2	5	90	0.00	29.910 
08:25	24.1	24.1	24.1	75	17.3	2	4	112	0.00	29.904 
08:30	24.1	24.1	24.1	75	17.3	3	6	90	0.00	29.892 
08:35	24.2	24.2	24.2	75	17.4	3	6	90	0.00	29.883 
08:40	24.2	19.1	24.2	75	17.4	4	7	90	0.00	29.872 
08:45	24.4	24.4	24.4	75	17.6	2	7	90	0.00	29.878 
08:50	24.4	19.3	24.4	76	17.9	4	10	112	0.00	29.873 
08:55	24.2	19.1	24.2	77	18.1	4	10	90	0.00	29.869 
09:00	24.2	19.1	24.2	78	18.3	4	7	90	0.00	29.887 
09:05	24.2	24.2	24.2	79	18.6	3	7	90	0.00	29.899 
09:10	24.2	24.2	24.2	81	19.2	2	9	90	0.00	29.887 
09:15	24.2	24.2	24.2	82	19.5	2	6	90	0.00	29.873 
09:20	24.1	24.1	24.1	83	19.7	2	7	112	0.00	29.874 
09:25	24.1	24.1	24.1	83	19.7	3	10	112	0.00	29.873 
09:30	24.2	24.2	24.2	83	19.8	3	10	90	0.00	29.867 
09:35	24.4	24.4	24.4	82	19.7	3	7	112	0.00	29.874 
09:40	24.5	24.5	24.5	82	19.8	2	7	112	0.00	29.870 
09:45	24.7	24.7	24.7	81	19.7	3	5	90	0.00	29.870 
09:50	24.8	19.8	24.8	81	19.8	4	9	90	0.00	29.871 
09:55	24.8	24.8	24.8	81	19.8	3	7	112	0.00	29.867 
10:00	24.8	19.8	24.8	81	19.8	4	9	112	0.00	29.856 
10:05	24.8	19.8	24.8	81	19.8	4	11	90	0.00	29.859 
10:10	25.0	25.0	25.0	81	20.0	3	6	112	0.00	29.871 
10:15	25.0	20.0	25.0	81	20.0	4	9	112	0.00	29.874 
10:20	25.0	25.0	25.0	81	20.0	3	7	112	0.00	29.874 
10:25	25.1	25.1	25.1	82	20.4	2	7	112	0.00	29.873 
10:30	25.1	25.1	25.1	81	20.1	2	6	90	0.00	29.874 
10:35	25.3	25.3	25.3	81	20.3	2	6	90	0.00	29.875 
10:40	25.4	25.4	25.4	81	20.4	2	5	112	0.00	29.880 
10:45	25.4	25.4	25.4	81	20.4	2	5	112	0.00	29.876 
10:50	25.6	25.6	25.6	81	20.6	1	5	112	0.00	29.878 
10:55	25.7	25.7	25.7	82	21.0	1	5	112	0.00	29.874 
11:00	25.7	25.7	25.7	82	21.0	2	6	112	0.00	29.872 
11:05	25.7	25.7	25.7	83	21.3	3	6	90	0.00	29.872 
11:10	25.7	25.7	25.7	84	21.5	2	7	112	0.00	29.859 
11:15	25.7	25.7	25.7	85	21.8	3	7	112	0.00	29.857 
11:20	25.7	20.8	25.7	83	21.3	4	10	90	0.00	29.852 
11:25	25.7	20.8	25.7	86	22.1	4	16	90	0.00	29.840 
11:30	25.7	25.7	25.7	87	22.4	2	7	112	0.00	29.832 
11:35	25.8	25.8	25.8	88	22.7	3	9	112	0.00	29.825 
11:40	26.0	26.0	26.0	88	22.9	3	10	112	0.00	29.814 
11:45	26.1	19.2	26.1	88	23.0	6	15	112	0.00	29.809 
11:50	26.1	18.4	26.1	88	23.0	7	15	90	0.00	29.802 
11:55	26.1	19.2	26.1	87	22.8	6	13	112	0.00	29.802 
12:00	26.3	19.4	26.3	87	23.0	6	14	112	0.00	29.793 
12:05	26.6	20.7	26.6	87	23.3	5	14	90	0.00	29.797 
12:10	26.7	20.9	26.7	86	23.1	5	12	112	0.00	29.796 
12:15	26.7	19.9	26.7	85	22.8	6	15	90	0.00	29.781 
12:20	26.9	21.1	26.9	85	23.0	5	12	90	0.00	29.777 
12:25	26.7	19.9	26.7	84	22.5	6	14	90	0.00	29.776 
12:30	26.7	19.9	26.7	84	22.5	6	11	112	0.00	29.761 
12:35	26.9	21.1	26.9	84	22.7	5	14	112	0.00	29.752 
12:40	27.2	22.5	27.2	84	23.0	4	11	112	0.00	29.749 
12:45	27.2	20.5	27.2	84	23.0	6	15	90	0.00	29.748 
12:50	27.3	22.6	27.3	84	23.1	4	12	90	0.00	29.738 
12:55	27.5	21.8	27.5	84	23.3	5	14	112	0.00	29.731 
13:00	27.5	22.9	27.5	84	23.3	4	10	90	0.00	29.726 
13:05	27.5	22.9	27.5	84	23.3	4	10	90	0.00	29.727 
13:10	27.5	22.9	27.5	84	23.3	4	12	90	0.00	29.721 
13:15	27.6	27.6	27.6	84	23.4	3	7	90	0.00	29.724 
13:20	27.6	23.0	27.6	84	23.4	4	8	112	0.00	29.716 
13:25	27.6	23.0	27.6	83	23.1	4	10	90	0.00	29.717 
13:30	27.5	22.9	27.5	83	23.0	4	10	112	0.00	29.724 
13:35	27.5	22.9	27.5	83	23.0	4	13	90	0.00	29.725 
13:40	27.3	21.6	27.3	83	22.8	5	12	90	0.00	29.717 
13:45	27.3	21.6	27.3	84	23.1	5	11	90	0.00	29.715 
13:50	27.3	21.6	27.3	84	23.1	5	12	90	0.00	29.711 
13:55	27.5	22.9	27.5	84	23.3	4	11	112	0.00	29.710 
14:00	27.5	20.9	27.5	84	23.3	6	13	90	0.00	29.712 
14:05	27.5	21.8	27.5	84	23.3	5	11	112	0.00	29.713 
14:10	27.5	27.5	27.5	84	23.3	3	12	90	0.00	29.711 
14:15	27.5	27.5	27.5	84	23.3	3	9	90	0.00	29.706 
14:20	27.5	21.8	27.5	84	23.3	5	9	90	0.00	29.700 
14:25	27.3	22.6	27.3	85	23.4	4	10	90	0.00	29.699 
14:30	27.3	22.6	27.3	85	23.4	4	13	90	0.00	29.703 
14:35	27.5	22.9	27.5	85	23.6	4	10	90	0.00	29.706 
14:40	27.5	27.5	27.5	86	23.9	3	6	90	0.00	29.706 
14:45	27.5	21.8	27.5	86	23.9	5	11	90	0.00	29.692 
14:50	27.5	22.9	27.5	86	23.9	4	10	112	0.00	29.681 
14:55	27.5	21.8	27.5	86	23.9	5	10	90	0.00	29.682 
15:00	27.6	21.9	27.6	86	24.0	5	13	90	0.00	29.681 
15:05	27.6	23.0	27.6	86	24.0	4	11	90	0.00	29.677 
15:10	27.6	23.0	27.6	86	24.0	4	9	90	0.00	29.677 
15:15	27.6	21.0	27.6	86	24.0	6	11	112	0.00	29.670 
15:20	27.6	21.0	27.6	86	24.0	6	12	90	0.00	29.666 
15:25	27.5	20.9	27.5	87	24.1	6	14	90	0.00	29.664 
15:30	27.3	21.6	27.3	88	24.2	5	10	112	0.00	29.666 
15:35	27.3	21.6	27.3	88	24.2	5	7	112	0.00	29.663 
15:40	27.2	21.4	27.2	89	24.4	5	14	90	0.00	29.663 
15:45	27.0	21.2	27.0	89	24.2	5	14	90	0.00	29.660 
15:50	27.2	22.5	27.2	90	24.7	4	10	90	0.00	29.660 
15:55	27.0	20.3	27.0	90	24.5	6	13	90	0.00	29.663 
16:00	27.0	21.2	27.0	90	24.5	5	12	90	0.00	29.663 
16:05	26.9	21.1	26.9	91	24.6	5	14	90	0.00	29.661 
16:10	26.9	21.1	26.9	91	24.6	5	10	90	0.00	29.649 
16:15	26.9	26.9	26.9	92	24.9	3	7	90	0.00	29.645 
16:20	26.9	21.1	26.9	92	24.9	5	10	90	0.00	29.633 
16:25	26.9	21.1	26.9	92	24.9	5	13	90	0.00	29.630 
16:30	26.9	26.9	26.9	92	24.9	3	10	90	0.00	29.629 
16:35	26.7	22.0	26.7	92	24.7	4	12	90	0.00	29.629 
16:40	26.7	22.0	26.7	92	24.7	4	7	112	0.00	29.615 
16:45	26.7	26.7	26.7	92	24.7	3	7	90	0.00	29.625 
16:50	26.9	22.2	26.9	93	25.2	4	11	112	0.00	29.628 
16:55	26.7	22.0	26.7	93	25.0	4	10	90	0.00	29.629 
17:00	26.7	22.0	26.7	93	25.0	4	10	90	0.00	29.621 
17:05	26.7	22.0	26.7	93	25.0	4	7	90	0.00	29.618 
17:10	26.7	26.7	26.7	93	25.0	3	9	112	0.00	29.616 
17:15	26.7	26.7	26.7	93	25.0	3	9	112	0.00	29.617 
17:20	26.7	26.7	26.7	93	25.0	3	10	90	0.00	29.629 
17:25	26.7	26.7	26.7	93	25.0	3	7	90	0.00	29.644 
17:30	26.9	26.9	26.9	93	25.2	2	5	112	0.00	29.647 
17:35	26.9	26.9	26.9	93	25.2	3	6	90	0.00	29.642 
17:40	26.9	26.9	26.9	93	25.2	2	5	90	0.00	29.648 
17:45	26.9	26.9	26.9	93	25.2	3	7	90	0.00	29.637 
17:50	26.9	26.9	26.9	93	25.2	3	5	90	0.00	29.623 
17:55	26.9	26.9	26.9	93	25.2	2	7	90	0.00	29.621 
18:00	26.9	26.9	26.9	93	25.2	2	6	112	0.00	29.612 
18:05	26.7	22.0	26.7	93	25.0	4	7	90	0.00	29.593 
18:10	26.7	26.7	26.7	93	25.0	3	10	112	0.00	29.575 
18:15	26.6	21.8	26.6	93	24.9	4	10	112	0.00	29.590 
18:20	26.6	26.6	26.6	93	24.9	3	12	112	0.00	29.582 
18:25	26.6	26.6	26.6	93	24.9	3	7	90	0.00	29.587 
18:30	26.6	26.6	26.6	93	24.9	2	4	112	0.00	29.603 
18:35	26.6	26.6	26.6	93	24.9	1	5	90	0.00	29.637 
18:40	26.7	26.7	26.7	93	25.0	1	3	90	0.00	29.628 
18:45	26.7	26.7	26.7	93	25.0	2	5	90	0.00	29.628 
18:50	26.7	26.7	26.7	93	25.0	3	5	90	0.00	29.613 
18:55	26.7	26.7	26.7	93	25.0	2	5	90	0.00	29.600 
19:00	26.7	26.7	26.7	93	25.0	2	4	90	0.00	29.599 
19:05	26.7	26.7	26.7	93	25.0	1	6	90	0.00	29.595 
19:10	26.7	26.7	26.7	93	25.0	2	6	112	0.00	29.587 
19:15	26.7	26.7	26.7	93	25.0	2	4	90	0.00	29.579 
19:20	26.6	26.6	26.6	93	24.9	2	4	90	0.00	29.574 
19:25	26.6	26.6	26.6	93	24.9	2	4	112	0.00	29.584 
19:30	26.6	26.6	26.6	93	24.9	2	7	90	0.00	29.581 
19:35	26.7	26.7	26.7	93	25.0	2	9	90	0.00	29.579 
19:40	26.7	26.7	26.7	93	25.0	3	7	90	0.00	29.579 
19:45	26.7	26.7	26.7	93	25.0	2	5	90	0.00	29.595 
19:50	26.7	26.7	26.7	93	25.0	2	5	90	0.00	29.594 
19:55	26.7	26.7	26.7	93	25.0	1	5	90	0.00	29.593 
20:00	26.9	26.9	26.9	93	25.2	2	5	90	0.00	29.594 
20:05	26.9	26.9	26.9	93	25.2	1	5	90	0.00	29.595 
20:10	26.9	26.9	26.9	93	25.2	3	5	90	0.00	29.591 
20:15	26.9	26.9	26.9	93	25.2	2	5	90	0.00	29.587 
20:20	26.9	26.9	26.9	93	25.2	2	5	90	0.00	29.579 
20:25	26.9	26.9	26.9	93	25.2	2	5	90	0.00	29.580 
20:30	26.9	26.9	26.9	93	25.2	2	5	90	0.00	29.579 
20:35	27.0	27.0	27.0	93	25.3	2	5	90	0.00	29.580 
20:40	27.0	27.0	27.0	93	25.3	1	4	90	0.00	29.575 
20:45	27.0	27.0	27.0	93	25.3	1	3	90	0.00	29.579 
20:50	27.2	27.2	27.2	94	25.7	1	3	90	0.00	29.579 
20:55	27.2	27.2	27.2	94	25.7	2	4	90	0.00	29.575 
21:00	27.2	27.2	27.2	94	25.7	1	3	90	0.00	29.574 
21:05	27.3	27.3	27.3	94	25.8	0	1	90	0.00	29.575 
21:10	27.3	27.3	27.3	94	25.8	1	2	90	0.00	29.579 
21:15	27.5	27.5	27.5	94	26.0	1	4	90	0.00	29.569 
21:20	27.3	27.3	27.3	94	25.8	1	3	90	0.00	29.562 
21:25	27.3	27.3	27.3	94	25.8	1	4	90	0.00	29.550 
21:30	27.3	27.3	27.3	94	25.8	1	3	112	0.00	29.545 
21:35	27.3	27.3	27.3	94	25.8	1	2	68	0.00	29.545 
21:40	27.3	27.3	27.3	94	25.8	1	3	112	0.00	29.542 
21:45	27.3	27.3	27.3	94	25.8	1	4	112	0.00	29.541 
21:50	27.3	27.3	27.3	94	25.8	1	5	112	0.00	29.538 
21:55	27.3	27.3	27.3	94	25.8	1	3	112	0.00	29.529 
22:00	27.3	27.3	27.3	94	25.8	1	3	112	0.00	29.533 
22:05	27.3	27.3	27.3	94	25.8	1	3	112	0.00	29.530 
22:10	27.3	27.3	27.3	94	25.8	2	4	90	0.00	29.529 
22:15	27.3	27.3	27.3	94	25.8	1	3	90	0.00	29.529 
22:20	27.3	27.3	27.3	94	25.8	0	2	90	0.00	29.520 
22:25	27.3	27.3	27.3	94	25.8	1	4	90	0.00	29.515 
22:30	27.3	27.3	27.3	94	25.8	1	4	90	0.00	29.515 
22:35	27.3	27.3	27.3	94	25.8	1	3	90	0.00	29.513 
22:40	27.3	27.3	27.3	95	26.1	1	3	90	0.00	29.512 
22:45	27.3	27.3	27.3	95	26.1	1	3	90	0.00	29.505 
22:50	27.3	27.3	27.3	95	26.1	1	2	90	0.00	29.511 
22:55	27.3	27.3	27.3	95	26.1	0	2	90	0.00	29.513 
23:00	27.3	27.3	27.3	95	26.1	1	2	90	0.00	29.508 
23:05	27.3	27.3	27.3	95	26.1	0	2	90	0.00	29.498 
23:10	27.3	27.3	27.3	95	26.1	1	3	90	0.00	29.486 
23:15	27.3	27.3	27.3	95	26.1	1	3	90	0.00	29.479 
23:20	27.3	27.3	27.3	95	26.1	1	3	90	0.00	29.478 
23:25	27.3	27.3	27.3	95	26.1	1	3	90	0.00	29.477 
23:30	27.3	27.3	27.3	95	26.1	0	2	90	0.00	29.469 
23:35	27.3	27.3	27.3	95	26.1	1	3	90	0.00	29.476 
23:40	27.3	27.3	27.3	95	26.1	0	2	90	0.00	29.482 
23:45	27.3	27.3	27.3	95	26.1	1	3	90	0.00	29.479 
23:50	27.3	27.3	27.3	95	26.1	0	2	90	0.00	29.474 
23:55	27.3	27.3	27.3	95	26.1	1	4	90	0.00	29.469 

CoCoRaHS
IN-AL-39
A2 Web Hosting
Creative Commons License
GoDaddy
search engine by freefind advanced

loaded 2018-11-13 21:49:51 • last modified 2010-11-18 10:43:29
Privacy PolicyDisclaimer
• wx.awcolley.com is powered by PmWiki v.2002016 •
• all content (unless otherwise noted) © 2018 A W Colley